createdAt,value
2018-08-24T00:00:09.208Z,17.40
2018-08-24T00:02:39.497Z,17.40
2018-08-24T00:05:09.444Z,17.40
2018-08-24T00:07:39.409Z,17.40
2018-08-24T00:10:09.598Z,17.40
2018-08-24T00:12:39.343Z,17.40
2018-08-24T00:15:09.314Z,17.40
2018-08-24T00:17:39.617Z,17.40
2018-08-24T00:20:09.249Z,17.30
2018-08-24T00:22:38.990Z,17.30
2018-08-24T00:25:09.477Z,17.30
2018-08-24T00:27:39.179Z,17.30
2018-08-24T00:30:10.166Z,17.30
2018-08-24T00:32:40.513Z,17.30
2018-08-24T00:35:10.170Z,17.30
2018-08-24T00:37:40.134Z,17.30
2018-08-24T00:40:10.310Z,17.20
2018-08-24T00:42:40.139Z,17.20
2018-08-24T00:45:10.170Z,17.20
2018-08-24T00:47:40.040Z,17.20
2018-08-24T00:50:09.897Z,17.20
2018-08-24T00:52:40.325Z,17.20
2018-08-24T00:55:10.646Z,17.10
2018-08-24T00:57:40.411Z,17.10
2018-08-24T01:00:10.443Z,17.10
2018-08-24T01:02:40.528Z,17.10
2018-08-24T01:05:10.561Z,17.10
2018-08-24T01:07:45.652Z,17.10
2018-08-24T01:10:20.614Z,17.10
2018-08-24T01:12:51.000Z,17.10
2018-08-24T01:15:20.866Z,17.00
2018-08-24T01:18:23.671Z,17.00
2018-08-24T01:20:55.567Z,17.00
2018-08-24T01:23:26.702Z,17.00
2018-08-24T01:25:56.682Z,16.90
2018-08-24T01:28:28.965Z,16.90
2018-08-24T01:31:09.305Z,16.90
2018-08-24T01:33:39.449Z,16.80
2018-08-24T01:36:09.189Z,16.80
2018-08-24T01:38:39.012Z,16.80
2018-08-24T01:41:09.525Z,16.80
2018-08-24T01:43:39.095Z,16.80
2018-08-24T01:46:10.448Z,16.70
2018-08-24T01:48:41.193Z,16.70
2018-08-24T01:51:10.957Z,16.70
2018-08-24T01:53:40.839Z,16.70
2018-08-24T01:56:11.221Z,16.70
2018-08-24T01:58:40.891Z,16.60
2018-08-24T02:01:10.574Z,16.60
2018-08-24T02:03:40.899Z,16.60
2018-08-24T02:06:10.513Z,16.60
2018-08-24T02:08:40.431Z,16.60
2018-08-24T02:11:15.465Z,16.60
2018-08-24T02:13:50.115Z,16.60
2018-08-24T02:16:20.323Z,16.60
2018-08-24T02:18:55.433Z,16.50
2018-08-24T02:21:30.744Z,16.50
2018-08-24T02:24:01.547Z,16.50
2018-08-24T02:26:31.654Z,16.40
2018-08-24T02:29:01.673Z,16.40
2018-08-24T02:31:40.438Z,16.40
2018-08-24T02:34:10.708Z,16.40
2018-08-24T02:36:41.016Z,16.40
2018-08-24T02:39:16.713Z,16.30
2018-08-24T02:41:46.755Z,16.30
2018-08-24T02:44:16.907Z,16.30
2018-08-24T02:46:47.233Z,16.30
2018-08-24T02:49:17.199Z,16.30
2018-08-24T02:51:47.169Z,16.30
2018-08-24T02:54:17.034Z,16.30
2018-08-24T02:56:47.255Z,16.30
2018-08-24T02:59:17.157Z,16.20
2018-08-24T03:01:47.053Z,16.20
2018-08-24T03:04:17.438Z,16.20
2018-08-24T03:06:47.490Z,16.20
2018-08-24T03:09:17.488Z,16.20
2018-08-24T03:11:47.552Z,16.20
2018-08-24T03:14:17.602Z,16.20
2018-08-24T03:16:53.064Z,16.20
2018-08-24T03:19:23.885Z,16.20
2018-08-24T03:21:53.947Z,16.20
2018-08-24T03:24:24.855Z,16.30
2018-08-24T03:26:54.950Z,16.30
2018-08-24T03:29:25.198Z,16.30
2018-08-24T03:31:56.075Z,16.30
2018-08-24T03:34:26.463Z,16.30
2018-08-24T03:36:56.834Z,16.40
2018-08-24T03:39:26.788Z,16.40
2018-08-24T03:41:56.804Z,16.40
2018-08-24T03:44:26.933Z,16.40
2018-08-24T03:46:56.687Z,16.40
2018-08-24T03:49:26.740Z,16.40
2018-08-24T03:51:57.086Z,16.40
2018-08-24T03:54:27.005Z,16.50
2018-08-24T03:56:58.135Z,16.50
2018-08-24T03:59:28.226Z,16.50
2018-08-24T04:01:58.166Z,16.50
2018-08-24T04:04:27.856Z,16.50
2018-08-24T04:06:58.364Z,16.50
2018-08-24T04:09:28.340Z,16.60
2018-08-24T04:11:58.349Z,16.50
2018-08-24T04:14:28.429Z,16.60
2018-08-24T04:17:03.314Z,16.60
2018-08-24T04:19:33.803Z,16.50
2018-08-24T04:22:03.875Z,16.60
2018-08-24T04:24:33.844Z,16.60
2018-08-24T04:27:04.287Z,16.60
2018-08-24T04:29:34.240Z,16.60
2018-08-24T04:32:04.941Z,16.60
2018-08-24T04:34:35.164Z,16.60
2018-08-24T04:37:05.083Z,16.60
2018-08-24T04:39:34.882Z,16.60
2018-08-24T04:42:04.949Z,16.60
2018-08-24T04:44:34.837Z,16.60
2018-08-24T04:47:04.775Z,16.60
2018-08-24T04:49:34.982Z,16.70
2018-08-24T04:52:05.006Z,16.70
2018-08-24T04:54:35.030Z,16.70
2018-08-24T04:57:05.725Z,16.80
2018-08-24T04:59:35.939Z,16.80
2018-08-24T05:02:05.854Z,16.80
2018-08-24T05:04:35.514Z,16.80
2018-08-24T05:07:05.477Z,16.80
2018-08-24T05:09:35.291Z,16.80
2018-08-24T05:12:05.545Z,16.90
2018-08-24T05:14:35.455Z,16.90
2018-08-24T05:17:05.513Z,16.90
2018-08-24T05:19:35.471Z,17.00
2018-08-24T05:22:05.509Z,17.00
2018-08-24T05:24:35.462Z,17.00
2018-08-24T05:27:05.542Z,17.00
2018-08-24T05:29:35.605Z,17.10
2018-08-24T05:32:06.278Z,17.10
2018-08-24T05:34:36.414Z,17.20
2018-08-24T05:37:06.508Z,17.20
2018-08-24T05:39:36.217Z,17.20
2018-08-24T05:42:06.273Z,17.30
2018-08-24T05:44:36.553Z,17.30
2018-08-24T05:47:06.667Z,17.30
2018-08-24T05:49:36.898Z,17.30
2018-08-24T05:52:06.764Z,17.40
2018-08-24T05:54:36.999Z,17.40
2018-08-24T05:57:07.112Z,17.40
2018-08-24T05:59:37.197Z,17.50
2018-08-24T06:02:07.516Z,17.50
2018-08-24T06:04:37.604Z,17.50
2018-08-24T06:07:07.633Z,17.60
2018-08-24T06:09:37.604Z,17.60
2018-08-24T06:12:07.838Z,17.60
2018-08-24T06:14:37.716Z,17.60
2018-08-24T06:17:12.573Z,17.70
2018-08-24T06:19:42.757Z,17.70
2018-08-24T06:22:12.721Z,17.80
2018-08-24T06:24:42.659Z,17.80
2018-08-24T06:27:13.036Z,17.80
2018-08-24T06:29:42.952Z,17.90
2018-08-24T06:32:13.382Z,17.90
2018-08-24T06:34:43.717Z,17.90
2018-08-24T06:37:13.684Z,17.90
2018-08-24T06:39:43.913Z,17.90
2018-08-24T06:42:14.278Z,18.00
2018-08-24T06:44:44.240Z,18.00
2018-08-24T06:47:14.229Z,18.00
2018-08-24T06:49:44.604Z,18.10
2018-08-24T06:52:14.649Z,18.10
2018-08-24T06:54:44.632Z,18.10
2018-08-24T06:57:15.033Z,18.10
2018-08-24T06:59:44.924Z,18.20
2018-08-24T07:02:15.242Z,18.20
2018-08-24T07:04:45.320Z,18.20
2018-08-24T07:07:15.067Z,18.20
2018-08-24T07:09:45.036Z,18.20
2018-08-24T07:12:15.756Z,18.20
2018-08-24T07:14:45.713Z,18.20
2018-08-24T07:17:19.790Z,18.30
2018-08-24T07:19:49.901Z,18.30
2018-08-24T07:22:20.130Z,18.30
2018-08-24T07:24:50.251Z,18.30
2018-08-24T07:27:20.263Z,18.40
2018-08-24T07:29:53.097Z,18.40
2018-08-24T07:32:23.584Z,18.40
2018-08-24T07:34:53.870Z,18.40
2018-08-24T07:37:24.275Z,18.40
2018-08-24T07:39:54.154Z,18.40
2018-08-24T07:42:24.602Z,18.40
2018-08-24T07:44:55.500Z,18.40
2018-08-24T07:47:25.951Z,18.50
2018-08-24T07:49:56.682Z,18.60
2018-08-24T07:52:26.988Z,18.60
2018-08-24T07:54:57.196Z,18.60
2018-08-24T07:57:27.270Z,18.60
2018-08-24T07:59:57.612Z,18.60
2018-08-24T08:02:33.111Z,18.60
2018-08-24T08:05:03.943Z,18.70
2018-08-24T08:07:33.732Z,18.70
2018-08-24T08:10:03.593Z,18.80
2018-08-24T08:12:34.066Z,18.80
2018-08-24T08:15:07.986Z,18.80
2018-08-24T08:17:38.781Z,18.80
2018-08-24T08:20:22.212Z,18.80
2018-08-24T08:23:04.197Z,18.90
2018-08-24T08:25:38.162Z,18.90
2018-08-24T08:28:12.873Z,19.00
2018-08-24T08:30:42.917Z,19.00
2018-08-24T08:33:13.578Z,19.00
2018-08-24T08:35:43.617Z,19.00
2018-08-24T08:38:13.866Z,19.00
2018-08-24T08:40:44.444Z,19.10
2018-08-24T08:43:14.719Z,19.10
2018-08-24T08:45:44.533Z,19.10
2018-08-24T08:48:14.420Z,19.10
2018-08-24T08:50:44.455Z,19.10
2018-08-24T08:53:14.390Z,19.10
2018-08-24T08:55:45.927Z,19.10
2018-08-24T08:58:16.166Z,19.00
2018-08-24T09:00:45.689Z,19.00
2018-08-24T09:03:15.639Z,19.00
2018-08-24T09:05:45.655Z,19.00
2018-08-24T09:08:15.378Z,19.00
2018-08-24T09:10:45.386Z,18.90
2018-08-24T09:13:15.703Z,18.90
2018-08-24T09:15:45.213Z,18.90
2018-08-24T09:18:20.025Z,18.90
2018-08-24T09:20:55.088Z,18.90
2018-08-24T09:23:30.348Z,18.90
2018-08-24T09:26:05.257Z,18.90
2018-08-24T09:28:38.378Z,18.90
2018-08-24T09:31:17.748Z,18.90
2018-08-24T09:33:48.392Z,18.80
2018-08-24T09:36:20.088Z,18.80
2018-08-24T09:38:51.231Z,18.80
2018-08-24T09:41:21.250Z,18.80
2018-08-24T09:43:56.200Z,18.80
2018-08-24T09:46:31.434Z,18.80
2018-08-24T09:49:06.630Z,18.80
2018-08-24T09:51:36.850Z,18.90
2018-08-24T09:54:07.669Z,18.90
2018-08-24T09:56:38.971Z,18.90
2018-08-24T09:59:08.958Z,18.90
2018-08-24T10:01:43.562Z,19.00
2018-08-24T10:04:19.565Z,19.00
2018-08-24T10:06:54.804Z,19.00
2018-08-24T10:09:25.029Z,19.00
2018-08-24T10:11:55.348Z,19.00
2018-08-24T10:14:25.315Z,19.10
2018-08-24T10:16:55.886Z,19.10
2018-08-24T10:19:26.099Z,19.10
2018-08-24T10:21:56.772Z,19.20
2018-08-24T10:24:26.916Z,19.20
2018-08-24T10:26:56.983Z,19.30
2018-08-24T10:29:27.452Z,19.30
2018-08-24T10:31:59.070Z,19.30
2018-08-24T10:34:29.565Z,19.40
2018-08-24T10:37:00.388Z,19.50
2018-08-24T10:39:30.612Z,19.50
2018-08-24T10:42:00.599Z,19.60
2018-08-24T10:44:42.956Z,19.70
2018-08-24T10:47:13.008Z,19.70
2018-08-24T10:49:43.301Z,19.70
2018-08-24T10:52:14.292Z,19.80
2018-08-24T10:54:44.528Z,19.80
2018-08-24T10:57:15.426Z,19.80
2018-08-24T10:59:45.155Z,19.80
2018-08-24T11:02:16.777Z,19.80
2018-08-24T11:04:46.919Z,19.70
2018-08-24T11:07:17.229Z,19.80
2018-08-24T11:09:47.293Z,19.80
2018-08-24T11:12:17.418Z,19.80
2018-08-24T11:14:47.726Z,19.80
2018-08-24T11:17:17.508Z,19.80
2018-08-24T11:19:47.382Z,19.80
2018-08-24T11:22:17.734Z,19.80
2018-08-24T11:24:47.727Z,19.80
2018-08-24T11:27:17.707Z,19.80
2018-08-24T11:29:57.423Z,19.80
2018-08-24T11:32:27.224Z,19.80
2018-08-24T11:35:00.038Z,19.80
2018-08-24T11:37:30.019Z,19.80
2018-08-24T11:40:01.305Z,19.80
2018-08-24T11:42:31.591Z,19.80
2018-08-24T11:45:01.255Z,19.80
2018-08-24T11:47:31.658Z,19.80
2018-08-24T11:50:02.675Z,19.80
2018-08-24T11:52:32.550Z,19.80
2018-08-24T11:55:02.446Z,19.80
2018-08-24T11:57:33.890Z,19.80
2018-08-24T12:00:03.708Z,19.70
2018-08-24T12:02:33.572Z,19.70
2018-08-24T12:05:03.851Z,19.70
2018-08-24T12:07:49.799Z,19.70
2018-08-24T12:10:20.884Z,19.60
2018-08-24T12:12:51.117Z,19.60
2018-08-24T12:15:21.371Z,19.50
2018-08-24T12:17:51.717Z,19.50
2018-08-24T12:20:21.813Z,19.40
2018-08-24T12:22:55.994Z,19.40
2018-08-24T12:25:26.424Z,19.40
2018-08-24T12:27:57.518Z,19.40
2018-08-24T12:30:27.515Z,19.30
2018-08-24T12:32:57.350Z,19.30
2018-08-24T12:35:27.786Z,19.30
2018-08-24T12:37:58.631Z,19.30
2018-08-24T12:40:28.828Z,19.30
2018-08-24T12:42:59.048Z,19.40
2018-08-24T12:45:33.460Z,19.40
2018-08-24T12:48:05.318Z,19.50
2018-08-24T12:50:35.105Z,19.50
2018-08-24T12:53:05.075Z,19.50
2018-08-24T12:55:34.887Z,19.60
2018-08-24T12:58:05.609Z,19.70
2018-08-24T13:00:35.754Z,19.80
2018-08-24T13:03:28.676Z,19.90
2018-08-24T13:05:58.338Z,20.00
2018-08-24T13:08:28.160Z,20.20
2018-08-24T13:10:58.420Z,20.20
2018-08-24T13:13:28.074Z,20.20
2018-08-24T13:15:58.329Z,20.20
2018-08-24T13:18:28.336Z,20.30
2018-08-24T13:20:58.236Z,20.30
2018-08-24T13:23:28.741Z,20.40
2018-08-24T13:25:58.973Z,20.50
2018-08-24T13:28:28.582Z,20.60
2018-08-24T13:30:58.865Z,20.70
2018-08-24T13:33:28.674Z,20.70
2018-08-24T13:35:59.360Z,20.80
2018-08-24T13:38:29.370Z,20.90
2018-08-24T13:40:59.124Z,20.90
2018-08-24T13:43:31.490Z,21.00
2018-08-24T13:46:01.694Z,21.00
2018-08-24T13:48:31.643Z,21.00
2018-08-24T13:51:01.479Z,21.00
2018-08-24T13:53:31.549Z,21.00
2018-08-24T13:56:01.697Z,21.00
2018-08-24T13:58:31.632Z,21.00
2018-08-24T14:01:01.898Z,21.10
2018-08-24T14:03:59.292Z,21.10
2018-08-24T14:06:29.401Z,21.10
2018-08-24T14:08:59.813Z,21.10
2018-08-24T14:11:29.840Z,21.00
2018-08-24T20:05:36.284Z,16.60
2018-08-24T20:08:11.095Z,16.40
2018-08-24T20:10:40.912Z,16.40
2018-08-24T20:13:10.213Z,16.30
2018-08-24T20:15:45.173Z,16.20
2018-08-24T20:18:14.851Z,16.20
2018-08-24T20:20:45.210Z,16.30
2018-08-24T20:23:14.872Z,16.30
2018-08-24T20:25:44.490Z,16.30
2018-08-24T20:28:14.547Z,16.20
2018-08-24T20:30:43.974Z,16.20
2018-08-24T20:33:13.703Z,16.10
2018-08-24T20:35:43.319Z,16.00
2018-08-24T20:38:12.910Z,16.00
2018-08-24T20:40:42.783Z,15.90
2018-08-24T20:43:12.430Z,15.80
2018-08-24T20:45:42.070Z,15.80
2018-08-24T20:48:12.341Z,15.80
2018-08-24T20:50:41.750Z,15.90
2018-08-24T20:53:11.389Z,15.90
2018-08-24T20:55:41.428Z,15.90
2018-08-24T20:58:11.219Z,15.80
2018-08-24T21:00:41.692Z,15.80
2018-08-24T21:03:11.395Z,15.70
2018-08-24T21:05:41.576Z,15.70
2018-08-24T21:08:11.292Z,15.60
2018-08-24T21:10:40.995Z,15.60
2018-08-24T21:13:10.680Z,15.60
2018-08-24T21:15:40.639Z,15.50
2018-08-24T21:18:10.273Z,15.40
2018-08-24T21:20:39.907Z,15.30
2018-08-24T21:23:10.079Z,15.20
2018-08-24T21:25:39.634Z,15.10
2018-08-24T21:28:09.003Z,15.00
2018-08-24T21:30:39.214Z,15.00
2018-08-24T21:33:08.762Z,15.00
2018-08-24T21:35:39.062Z,15.00
2018-08-24T21:38:09.226Z,15.10
2018-08-24T21:40:38.787Z,15.10
2018-08-24T21:43:08.443Z,15.00
2018-08-24T21:45:38.500Z,15.00
2018-08-24T21:48:07.867Z,15.00
2018-08-24T21:50:37.439Z,15.00
2018-08-24T21:53:07.501Z,15.00
2018-08-24T21:55:37.191Z,15.00
2018-08-24T21:58:07.246Z,14.90
2018-08-24T22:00:42.550Z,14.90
2018-08-24T22:03:13.393Z,14.80
2018-08-24T22:05:43.618Z,14.80
2018-08-24T22:08:13.521Z,14.80
2018-08-24T22:10:43.309Z,14.80
2018-08-24T22:13:13.454Z,14.80
2018-08-24T22:15:42.909Z,14.80
2018-08-24T22:18:12.714Z,14.80
2018-08-24T22:20:42.380Z,14.80
2018-08-24T22:23:11.781Z,14.80
2018-08-24T22:25:41.292Z,14.80
2018-08-24T22:28:11.458Z,14.70
2018-08-24T22:30:40.973Z,14.70
2018-08-24T22:33:10.619Z,14.70
2018-08-24T22:35:40.739Z,14.70
2018-08-24T22:38:10.333Z,14.70
2018-08-24T22:40:39.963Z,14.70
2018-08-24T22:43:40.645Z,14.70
2018-08-24T22:46:10.284Z,14.70
2018-08-24T22:48:40.692Z,14.70
2018-08-24T22:51:10.636Z,14.70
2018-08-24T22:53:40.356Z,14.70
2018-08-24T22:56:10.362Z,14.70
2018-08-24T22:58:40.067Z,14.70
2018-08-24T23:01:09.755Z,14.70
2018-08-24T23:03:39.657Z,14.70
2018-08-24T23:06:09.615Z,14.70
2018-08-24T23:08:39.234Z,14.70
2018-08-24T23:11:09.294Z,14.70
2018-08-24T23:13:38.850Z,14.60
2018-08-24T23:16:08.557Z,14.50
2018-08-24T23:18:38.744Z,14.40
2018-08-24T23:21:08.487Z,14.40
2018-08-24T23:23:38.278Z,14.30
2018-08-24T23:26:08.370Z,14.20
2018-08-24T23:28:37.920Z,14.20
2018-08-24T23:31:07.924Z,14.30
2018-08-24T23:33:37.548Z,14.30
2018-08-24T23:36:07.316Z,14.30
2018-08-24T23:38:36.987Z,14.30
2018-08-24T23:41:06.935Z,14.30
2018-08-24T23:43:36.604Z,14.30
2018-08-24T23:46:06.453Z,14.20
2018-08-24T23:48:36.423Z,14.10
2018-08-24T23:51:06.184Z,14.10
2018-08-24T23:53:35.743Z,14.10
2018-08-24T23:56:05.410Z,14.00
2018-08-24T23:58:35.122Z,14.00
